createdAt,value
2022-12-14T00:00:44.570Z,90.40
2022-12-14T00:01:18.010Z,90.40
2022-12-14T00:01:52.619Z,90.40
2022-12-14T00:02:25.186Z,90.50
2022-12-14T00:02:57.282Z,90.50
2022-12-14T00:03:29.239Z,90.50
2022-12-14T00:04:01.095Z,90.40
2022-12-14T00:05:05.444Z,90.30
2022-12-14T00:05:37.342Z,90.40
2022-12-14T00:06:38.364Z,90.50
2022-12-14T00:07:10.132Z,90.50
2022-12-14T00:07:41.908Z,90.40
2022-12-14T00:08:15.579Z,90.40
2022-12-14T00:08:49.392Z,90.40
2022-12-14T00:09:21.443Z,90.30
2022-12-14T00:09:54.075Z,90.40
2022-12-14T00:10:25.885Z,90.50
2022-12-14T00:10:58.658Z,90.50
2022-12-14T00:11:33.450Z,90.40
2022-12-14T00:12:05.335Z,90.40
2022-12-14T00:12:37.149Z,90.50
2022-12-14T00:13:11.757Z,90.50
2022-12-14T00:13:43.938Z,90.50
2022-12-14T00:14:20.707Z,90.50
2022-12-14T00:14:52.542Z,90.50
2022-12-14T00:15:56.949Z,90.60
2022-12-14T00:16:31.493Z,90.50
2022-12-14T00:17:03.254Z,90.50
2022-12-14T00:17:35.798Z,90.50
2022-12-14T00:18:07.561Z,90.60
2022-12-14T00:18:40.683Z,90.50
2022-12-14T00:19:12.716Z,90.50
2022-12-14T00:19:44.681Z,90.60
2022-12-14T00:20:53.789Z,90.60
2022-12-14T00:21:58.682Z,90.40
2022-12-14T00:22:30.502Z,90.50
2022-12-14T00:23:02.304Z,90.60
2022-12-14T00:23:38.888Z,90.60
2022-12-14T00:24:10.947Z,90.60
2022-12-14T00:25:15.498Z,90.50
2022-12-14T00:25:48.983Z,90.50
2022-12-14T00:26:23.390Z,90.50
2022-12-14T00:26:55.310Z,90.40
2022-12-14T00:27:27.124Z,90.50
2022-12-14T00:27:59.170Z,90.50
2022-12-14T00:29:03.986Z,90.50
2022-12-14T00:29:36.232Z,90.50
2022-12-14T00:30:08.585Z,90.40
2022-12-14T00:30:40.300Z,90.40
2022-12-14T00:31:12.718Z,90.40
2022-12-14T00:31:48.694Z,90.50
2022-12-14T00:32:20.823Z,90.30
2022-12-14T00:32:52.569Z,90.30
2022-12-14T00:33:24.318Z,90.30
2022-12-14T00:34:28.561Z,90.30
2022-12-14T00:35:01.436Z,90.30
2022-12-14T00:36:06.796Z,90.30
2022-12-14T00:36:38.691Z,90.30
2022-12-14T00:37:11.225Z,90.30
2022-12-14T00:37:43.804Z,90.30
2022-12-14T00:38:20.874Z,90.40
2022-12-14T00:38:52.633Z,90.30
2022-12-14T00:39:24.399Z,90.40
2022-12-14T00:39:56.132Z,90.40
2022-12-14T00:40:28.254Z,90.40
2022-12-14T00:41:00.238Z,90.40
2022-12-14T00:41:31.935Z,90.50
2022-12-14T00:42:03.815Z,90.40
2022-12-14T00:42:36.476Z,90.30
2022-12-14T00:43:40.912Z,90.20
2022-12-14T00:44:12.690Z,90.30
2022-12-14T00:45:16.739Z,90.10
2022-12-14T00:45:48.740Z,90.20
2022-12-14T00:47:25.302Z,90.20
2022-12-14T00:47:57.091Z,90.20
2022-12-14T00:48:29.448Z,90.20
2022-12-14T00:49:01.509Z,90.20
2022-12-14T00:49:33.298Z,90.30
2022-12-14T00:50:05.546Z,90.20
2022-12-14T00:50:37.505Z,90.20
2022-12-14T00:51:09.261Z,90.20
2022-12-14T00:51:41.107Z,90.20
2022-12-14T00:52:12.854Z,90.30
2022-12-14T00:52:44.559Z,90.20
2022-12-14T00:53:17.884Z,90.20
2022-12-14T00:53:49.716Z,90.20
2022-12-14T00:54:21.541Z,90.20
2022-12-14T00:54:53.325Z,90.20
2022-12-14T00:55:25.066Z,90.10
2022-12-14T00:55:56.985Z,90.10
2022-12-14T00:56:28.760Z,90.10
2022-12-14T00:57:00.518Z,90.10
2022-12-14T00:57:32.255Z,90.10
2022-12-14T00:58:04.035Z,90.10
2022-12-14T00:58:35.864Z,90.10
2022-12-14T00:59:07.627Z,90.10
2022-12-14T00:59:39.345Z,90.20
2022-12-14T01:00:13.562Z,90.20
2022-12-14T01:00:45.589Z,90.20
2022-12-14T01:01:17.682Z,90.20
2022-12-14T01:01:49.532Z,90.20
2022-12-14T01:02:21.617Z,90.20
2022-12-14T01:02:53.420Z,90.20
2022-12-14T01:03:25.652Z,90.20
2022-12-14T01:04:48.845Z,90.10
2022-12-14T01:05:20.732Z,90.20
2022-12-14T01:06:24.725Z,90.20
2022-12-14T01:06:56.751Z,90.20
2022-12-14T01:08:01.060Z,90.10
2022-12-14T01:08:36.307Z,90.10
2022-12-14T01:09:08.386Z,90.00
2022-12-14T01:09:40.194Z,90.10
2022-12-14T01:10:44.845Z,90.10
2022-12-14T01:11:17.077Z,90.10
2022-12-14T01:12:21.308Z,90.00
2022-12-14T01:12:53.100Z,90.10
2022-12-14T01:13:25.278Z,90.00
2022-12-14T01:14:29.518Z,89.90
2022-12-14T01:15:02.839Z,90.00
2022-12-14T01:15:35.912Z,90.00
2022-12-14T01:16:17.384Z,90.00
2022-12-14T01:16:49.470Z,90.00
2022-12-14T01:17:53.345Z,90.00
2022-12-14T01:18:25.142Z,90.00
2022-12-14T01:18:56.957Z,90.10
2022-12-14T01:19:28.765Z,90.10
2022-12-14T01:20:00.548Z,90.10
2022-12-14T01:20:32.354Z,90.10
2022-12-14T01:21:24.079Z,90.10
2022-12-14T01:21:55.922Z,90.10
2022-12-14T01:22:28.046Z,90.10
2022-12-14T01:22:59.829Z,90.00
2022-12-14T01:23:31.601Z,90.10
2022-12-14T01:24:05.376Z,90.10
2022-12-14T01:24:37.209Z,90.00
2022-12-14T01:25:41.729Z,89.90
2022-12-14T01:26:46.647Z,89.80
2022-12-14T01:27:18.445Z,89.90
2022-12-14T01:27:50.497Z,90.00
2022-12-14T01:28:22.387Z,90.00
2022-12-14T01:28:57.305Z,89.90
2022-12-14T01:30:01.320Z,89.70
2022-12-14T01:30:33.123Z,89.80
2022-12-14T01:31:10.549Z,89.90
2022-12-14T01:32:14.710Z,89.80
2022-12-14T01:32:47.323Z,89.80
2022-12-14T01:33:19.811Z,89.70
2022-12-14T01:33:51.608Z,89.70
2022-12-14T01:34:23.382Z,89.90
2022-12-14T01:34:55.150Z,90.00
2022-12-14T01:35:26.883Z,89.90
2022-12-14T01:36:07.902Z,89.80
2022-12-14T01:36:39.825Z,89.80
2022-12-14T01:37:11.593Z,89.90
2022-12-14T01:37:43.397Z,90.00
2022-12-14T01:38:15.139Z,90.00
2022-12-14T01:38:48.140Z,90.00
2022-12-14T01:40:24.970Z,89.80
2022-12-14T01:41:00.391Z,89.90
2022-12-14T01:42:11.881Z,89.70
2022-12-14T01:43:15.976Z,89.50
2022-12-14T01:43:49.018Z,89.70
2022-12-14T01:44:21.115Z,89.90
2022-12-14T01:44:55.786Z,90.00
2022-12-14T01:45:27.651Z,89.90
2022-12-14T01:46:41.495Z,89.60
2022-12-14T01:47:43.083Z,89.80
2022-12-14T01:48:14.931Z,90.00
2022-12-14T01:48:50.736Z,89.90
2022-12-14T01:50:17.532Z,89.80
2022-12-14T01:51:24.498Z,89.80
2022-12-14T01:52:09.590Z,90.00
2022-12-14T01:52:47.703Z,90.00
2022-12-14T01:53:57.341Z,89.90
2022-12-14T01:54:33.829Z,90.00
2022-12-14T01:55:10.501Z,90.00
2022-12-14T01:55:48.790Z,90.00
2022-12-14T01:56:21.105Z,90.00
2022-12-14T01:56:54.094Z,90.00
2022-12-14T01:57:54.294Z,90.00
2022-12-14T01:58:28.933Z,90.00
2022-12-14T01:59:12.877Z,90.00
2022-12-14T01:59:47.980Z,89.90
2022-12-14T02:00:20.069Z,89.90
2022-12-14T02:00:59.401Z,89.70
2022-12-14T02:01:31.592Z,89.60
2022-12-14T02:02:44.207Z,90.00
2022-12-14T02:03:27.116Z,90.00
2022-12-14T02:04:00.781Z,90.00
2022-12-14T02:04:38.325Z,89.90
2022-12-14T02:05:12.565Z,90.00
2022-12-14T02:05:56.021Z,90.00
2022-12-14T02:06:36.240Z,90.00
2022-12-14T02:08:52.309Z,89.70
2022-12-14T02:09:31.264Z,89.90
2022-12-14T02:10:38.588Z,89.80
2022-12-14T02:11:10.689Z,89.90
2022-12-14T02:11:55.279Z,89.80
2022-12-14T02:12:45.313Z,89.80
2022-12-14T02:13:29.471Z,89.90
2022-12-14T02:14:36.399Z,89.60
2022-12-14T02:15:41.851Z,89.50
2022-12-14T02:16:13.770Z,89.60
2022-12-14T02:16:46.180Z,89.60
2022-12-14T02:17:20.583Z,89.60
2022-12-14T02:17:54.778Z,89.40
2022-12-14T02:18:29.722Z,89.40
2022-12-14T02:19:03.652Z,89.50
2022-12-14T02:19:37.195Z,89.50
2022-12-14T02:20:09.728Z,89.50
2022-12-14T02:21:10.358Z,89.30
2022-12-14T02:22:29.261Z,89.80
2022-12-14T02:23:16.042Z,90.00
2022-12-14T02:24:47.340Z,89.60
2022-12-14T02:25:57.809Z,89.60
2022-12-14T02:26:53.980Z,90.20
2022-12-14T02:27:56.263Z,90.00
2022-12-14T02:28:27.954Z,90.10
2022-12-14T02:29:51.596Z,90.10
2022-12-14T02:30:26.435Z,90.10
2022-12-14T02:31:30.844Z,90.00
2022-12-14T02:32:15.831Z,90.10
2022-12-14T02:33:57.382Z,90.00
2022-12-14T02:34:51.484Z,90.00
2022-12-14T02:35:45.578Z,90.00
2022-12-14T02:36:28.562Z,90.00
2022-12-14T02:37:11.059Z,90.00
2022-12-14T02:37:49.344Z,90.00
2022-12-14T02:39:27.978Z,90.00
2022-12-14T02:40:57.131Z,90.00
2022-12-14T02:41:45.116Z,90.00
2022-12-14T02:42:31.860Z,89.70
2022-12-14T02:43:31.663Z,89.70
2022-12-14T02:44:36.688Z,89.90
2022-12-14T02:45:21.955Z,90.00
2022-12-14T02:46:08.751Z,89.90
2022-12-14T02:46:56.856Z,90.00
2022-12-14T02:47:41.100Z,90.00
2022-12-14T02:48:26.556Z,90.00
2022-12-14T02:49:11.211Z,90.00
2022-12-14T02:50:09.232Z,90.00
2022-12-14T02:50:58.088Z,90.00
2022-12-14T02:51:45.452Z,90.20
2022-12-14T02:52:44.182Z,90.00
2022-12-14T02:53:37.239Z,90.10
2022-12-14T02:54:24.013Z,90.10
2022-12-14T02:55:06.857Z,90.00
2022-12-14T02:55:50.475Z,89.90
2022-12-14T02:56:29.368Z,89.80
2022-12-14T02:57:38.957Z,89.70
2022-12-14T02:58:24.019Z,89.70
2022-12-14T02:58:57.808Z,90.00
2022-12-14T02:59:32.014Z,89.80
2022-12-14T03:00:06.565Z,89.70
2022-12-14T03:00:38.935Z,89.70
2022-12-14T03:01:17.800Z,89.80
2022-12-14T03:02:26.289Z,89.40
2022-12-14T03:03:31.394Z,89.10
2022-12-14T03:04:45.867Z,89.30
2022-12-14T03:05:17.956Z,89.30
2022-12-14T03:06:04.646Z,89.50
2022-12-14T03:06:36.454Z,89.60
2022-12-14T03:07:39.308Z,89.70
2022-12-14T03:08:15.488Z,89.80
2022-12-14T03:08:47.689Z,89.60
2022-12-14T03:09:19.496Z,89.70
2022-12-14T03:09:52.566Z,89.60
2022-12-14T03:11:06.129Z,89.10
2022-12-14T03:11:44.005Z,89.20
2022-12-14T03:12:19.393Z,89.50
2022-12-14T03:12:56.049Z,89.40
2022-12-14T03:14:25.399Z,89.30
2022-12-14T03:15:01.113Z,89.00
2022-12-14T03:15:37.819Z,88.90
2022-12-14T03:16:13.349Z,89.00
2022-12-14T03:16:49.857Z,89.20
2022-12-14T03:17:26.771Z,88.90
2022-12-14T03:18:05.400Z,88.80
2022-12-14T03:18:42.646Z,88.90
2022-12-14T03:19:25.005Z,89.10
2022-12-14T03:20:05.350Z,89.70
2022-12-14T03:20:39.479Z,89.10
2022-12-14T03:21:16.968Z,89.00
2022-12-14T03:22:14.710Z,88.90
2022-12-14T03:23:00.442Z,88.70
2022-12-14T03:23:37.964Z,88.80
2022-12-14T03:24:15.090Z,88.90
2022-12-14T03:25:02.360Z,88.80
2022-12-14T03:25:40.566Z,88.80
2022-12-14T03:26:24.037Z,88.70
2022-12-14T03:27:27.635Z,88.80
2022-12-14T03:28:07.714Z,88.70
2022-12-14T03:29:02.413Z,88.70
2022-12-14T03:29:42.892Z,88.60
2022-12-14T03:30:31.657Z,88.50
2022-12-14T03:31:16.477Z,88.50
2022-12-14T03:31:54.873Z,88.60
2022-12-14T03:33:07.731Z,88.60
2022-12-14T03:33:43.795Z,88.70
2022-12-14T03:35:01.369Z,88.60
2022-12-14T03:35:42.437Z,88.60
2022-12-14T03:36:35.961Z,88.60
2022-12-14T03:37:21.783Z,88.40
2022-12-14T03:38:07.559Z,88.20
2022-12-14T03:38:43.133Z,88.20
2022-12-14T03:39:26.274Z,88.10
2022-12-14T03:39:58.545Z,88.20
2022-12-14T03:40:46.942Z,88.30
2022-12-14T03:41:34.409Z,88.00
2022-12-14T03:42:39.966Z,87.70
2022-12-14T03:43:30.931Z,87.90
2022-12-14T03:44:32.420Z,88.00
2022-12-14T03:45:28.504Z,88.10
2022-12-14T03:46:25.551Z,88.10
2022-12-14T03:47:15.656Z,88.10
2022-12-14T03:48:06.179Z,88.20
2022-12-14T03:48:52.044Z,88.20
2022-12-14T03:50:01.797Z,88.00
2022-12-14T03:51:06.210Z,88.00
2022-12-14T03:52:03.006Z,88.00
2022-12-14T03:52:57.935Z,88.20
2022-12-14T03:54:02.917Z,88.00
2022-12-14T03:55:10.090Z,88.00
2022-12-14T03:55:57.006Z,87.90
2022-12-14T03:56:48.296Z,88.10
2022-12-14T03:58:04.973Z,87.60
2022-12-14T03:59:25.448Z,87.80
2022-12-14T04:00:12.248Z,87.60
2022-12-14T04:01:03.811Z,87.50
2022-12-14T04:02:09.215Z,87.50
2022-12-14T04:03:07.500Z,87.60
2022-12-14T04:04:03.447Z,87.70
2022-12-14T04:04:49.291Z,87.50
2022-12-14T04:05:36.789Z,87.40
2022-12-14T04:07:12.895Z,87.70
2022-12-14T04:07:52.348Z,87.80
2022-12-14T04:09:32.506Z,87.30
2022-12-14T04:10:35.349Z,87.30
2022-12-14T04:11:31.358Z,87.50
2022-12-14T04:13:21.189Z,87.50
2022-12-14T04:14:26.778Z,87.60
2022-12-14T04:15:59.296Z,87.60
2022-12-14T04:16:56.670Z,87.60
2022-12-14T04:18:59.279Z,87.60
2022-12-14T04:20:09.785Z,87.70
2022-12-14T04:20:50.656Z,87.50
2022-12-14T04:21:46.026Z,87.60
2022-12-14T04:22:28.926Z,87.60
2022-12-14T04:24:07.261Z,86.90
2022-12-14T04:25:08.872Z,86.90
2022-12-14T04:26:05.136Z,87.10
2022-12-14T04:26:43.943Z,87.50
2022-12-14T04:27:22.671Z,87.40
2022-12-14T04:28:05.908Z,87.40
2022-12-14T04:29:35.477Z,87.40
2022-12-14T04:30:10.581Z,87.50
2022-12-14T04:30:42.681Z,87.80
2022-12-14T04:32:06.831Z,87.20
2022-12-14T04:32:48.596Z,87.30
2022-12-14T04:33:39.068Z,87.40
2022-12-14T04:34:12.899Z,87.80
2022-12-14T04:35:42.416Z,87.70
2022-12-14T04:36:32.695Z,87.70
2022-12-14T04:37:12.095Z,87.90
2022-12-14T04:38:11.404Z,87.60
2022-12-14T04:38:49.163Z,87.70
2022-12-14T04:39:47.433Z,87.80
2022-12-14T04:41:04.777Z,88.00
2022-12-14T04:41:41.398Z,88.10
2022-12-14T04:42:16.302Z,88.10
2022-12-14T04:42:54.900Z,88.20
2022-12-14T04:43:39.938Z,87.90
2022-12-14T04:44:24.458Z,87.80
2022-12-14T04:45:09.580Z,87.80
2022-12-14T04:45:50.458Z,87.90
2022-12-14T04:46:30.837Z,87.80
2022-12-14T04:47:09.196Z,87.80
2022-12-14T04:48:01.632Z,88.00
2022-12-14T04:48:40.695Z,88.00
2022-12-14T04:49:21.404Z,87.90
2022-12-14T04:50:01.537Z,87.90
2022-12-14T04:50:42.551Z,87.90
2022-12-14T04:51:20.244Z,88.10
2022-12-14T04:52:05.524Z,88.20
2022-12-14T04:52:47.088Z,88.10
2022-12-14T04:53:25.704Z,88.40
2022-12-14T04:54:25.062Z,88.40
2022-12-14T04:55:03.663Z,88.80
2022-12-14T04:56:36.235Z,88.60
2022-12-14T04:57:18.921Z,89.00
2022-12-14T04:58:17.070Z,89.00
2022-12-14T04:58:49.208Z,89.20
2022-12-14T04:59:55.103Z,88.70
2022-12-14T05:00:29.163Z,88.90
2022-12-14T05:01:25.998Z,88.90
2022-12-14T05:02:17.597Z,89.20
2022-12-14T05:03:01.438Z,88.90
2022-12-14T05:03:41.171Z,90.60
2022-12-14T05:04:37.797Z,88.90
2022-12-14T05:05:25.003Z,89.50
2022-12-14T05:06:11.598Z,89.20
2022-12-14T05:07:06.063Z,89.40
2022-12-14T05:07:53.002Z,89.20
2022-12-14T05:08:43.625Z,89.10
2022-12-14T05:09:39.185Z,88.90
2022-12-14T05:10:34.148Z,89.60
2022-12-14T05:11:54.092Z,89.50
2022-12-14T05:12:32.165Z,88.90
2022-12-14T05:13:30.247Z,90.30
2022-12-14T05:14:10.121Z,89.60
2022-12-14T05:14:49.296Z,89.60
2022-12-14T05:15:29.994Z,88.90
2022-12-14T05:16:02.384Z,89.60
2022-12-14T05:16:36.896Z,89.20
2022-12-14T05:17:09.797Z,89.60
2022-12-14T05:17:42.921Z,89.20
2022-12-14T05:18:15.612Z,89.60
2022-12-14T05:18:47.723Z,89.50
2022-12-14T05:19:19.508Z,88.90
2022-12-14T05:19:51.657Z,88.90
2022-12-14T05:20:24.464Z,88.80
2022-12-14T05:20:56.262Z,88.70
2022-12-14T05:21:47.435Z,88.70
2022-12-14T05:22:19.351Z,88.80
2022-12-14T05:22:51.554Z,88.70
2022-12-14T05:23:23.292Z,88.50
2022-12-14T05:23:55.012Z,88.60
2022-12-14T05:24:26.722Z,88.60
2022-12-14T05:24:58.433Z,88.60
2022-12-14T05:25:30.431Z,88.80
2022-12-14T05:26:02.165Z,88.70
2022-12-14T05:26:34.319Z,88.80
2022-12-14T05:27:06.465Z,89.20
2022-12-14T05:27:38.274Z,88.60
2022-12-14T05:28:11.331Z,88.50
2022-12-14T05:28:48.785Z,89.10
2022-12-14T05:29:22.317Z,88.50
2022-12-14T05:29:54.097Z,88.40
2022-12-14T05:30:26.181Z,88.40
2022-12-14T05:30:58.061Z,88.40
2022-12-14T05:31:30.044Z,88.30
2022-12-14T05:32:02.457Z,88.40
2022-12-14T05:32:34.643Z,88.90
2022-12-14T05:33:06.498Z,88.80
2022-12-14T05:33:38.225Z,88.40
2022-12-14T05:34:10.017Z,88.70
2022-12-14T05:34:41.883Z,88.30
2022-12-14T05:35:14.430Z,88.20
2022-12-14T05:35:46.586Z,88.50
2022-12-14T05:36:19.542Z,88.00
2022-12-14T05:37:23.514Z,88.00
2022-12-14T05:37:55.736Z,88.00
2022-12-14T05:38:27.538Z,87.90
2022-12-14T05:38:59.410Z,87.80
2022-12-14T05:39:31.153Z,88.00
2022-12-14T05:40:03.457Z,87.40
2022-12-14T05:40:35.229Z,87.90
2022-12-14T05:41:07.204Z,86.60
2022-12-14T05:41:38.915Z,87.70
2022-12-14T05:42:46.100Z,87.60
2022-12-14T05:43:19.401Z,87.70
2022-12-14T05:43:51.218Z,87.60
2022-12-14T05:44:23.185Z,87.50
2022-12-14T05:44:55.085Z,87.60
2022-12-14T05:45:26.790Z,88.30
2022-12-14T05:46:03.402Z,87.60
2022-12-14T05:46:35.180Z,87.50
2022-12-14T05:47:39.869Z,87.30
2022-12-14T05:48:11.710Z,87.30
2022-12-14T05:48:48.808Z,87.20
2022-12-14T05:49:21.061Z,87.90
2022-12-14T05:49:52.844Z,87.20
2022-12-14T05:50:24.908Z,87.10
2022-12-14T05:51:05.243Z,87.20
2022-12-14T05:51:37.051Z,87.10
2022-12-14T05:52:08.814Z,87.10
2022-12-14T05:52:40.533Z,87.10
2022-12-14T05:53:44.679Z,87.10
2022-12-14T05:54:16.625Z,87.10
2022-12-14T05:54:48.401Z,87.00
2022-12-14T05:55:20.205Z,87.00
2022-12-14T05:55:52.448Z,87.00
2022-12-14T05:56:24.206Z,87.10
2022-12-14T05:56:55.980Z,87.00
2022-12-14T05:57:27.690Z,86.90
2022-12-14T05:57:59.379Z,87.50
2022-12-14T05:58:31.401Z,86.80
2022-12-14T05:59:03.177Z,86.80
2022-12-14T05:59:34.958Z,87.10
2022-12-14T06:00:07.269Z,86.90
2022-12-14T06:00:40.084Z,86.80
2022-12-14T06:01:51.080Z,86.90
2022-12-14T06:02:22.977Z,87.10
2022-12-14T06:02:55.578Z,86.80
2022-12-14T06:03:28.527Z,86.80
2022-12-14T06:04:00.595Z,87.70
2022-12-14T06:04:32.772Z,87.00
2022-12-14T06:05:04.840Z,86.80
2022-12-14T06:05:36.583Z,86.60
2022-12-14T06:06:11.674Z,86.60
2022-12-14T06:06:43.425Z,86.40
2022-12-14T06:07:15.239Z,86.50
2022-12-14T06:07:46.962Z,86.50
2022-12-14T06:08:18.732Z,86.50
2022-12-14T06:09:22.984Z,86.60
2022-12-14T06:09:54.731Z,86.50
2022-12-14T06:10:26.549Z,86.50
2022-12-14T06:11:08.459Z,86.50
2022-12-14T06:11:41.606Z,86.60
2022-12-14T06:12:13.361Z,86.70
2022-12-14T06:12:45.144Z,86.60
2022-12-14T06:13:16.920Z,86.50
2022-12-14T06:13:49.525Z,86.60
2022-12-14T06:14:55.892Z,86.60
2022-12-14T06:15:33.662Z,86.40
2022-12-14T06:16:16.867Z,86.50
2022-12-14T06:16:48.695Z,86.20
2022-12-14T06:17:20.538Z,86.20
2022-12-14T06:17:52.257Z,86.30
2022-12-14T06:18:24.205Z,86.00
2022-12-14T06:18:58.268Z,85.90
2022-12-14T06:19:30.775Z,85.80
2022-12-14T06:20:02.547Z,86.00
2022-12-14T06:20:34.249Z,86.00
2022-12-14T06:21:06.104Z,85.90
2022-12-14T06:21:39.768Z,85.90
2022-12-14T06:22:11.591Z,85.70
2022-12-14T06:22:47.539Z,85.80
2022-12-14T06:23:19.696Z,86.00
2022-12-14T06:23:51.743Z,86.00
2022-12-14T06:24:23.805Z,85.90
2022-12-14T06:24:55.515Z,85.90
2022-12-14T06:25:27.813Z,85.90
2022-12-14T06:25:59.540Z,86.00
2022-12-14T06:26:33.784Z,86.10
2022-12-14T06:27:05.607Z,86.20
2022-12-14T06:27:37.343Z,86.00
2022-12-14T06:28:09.123Z,85.90
2022-12-14T06:28:41.100Z,85.80
2022-12-14T06:29:18.714Z,85.90
2022-12-14T06:29:50.443Z,86.10
2022-12-14T06:30:22.210Z,86.10
2022-12-14T06:30:53.985Z,85.70
2022-12-14T06:32:01.029Z,85.80
2022-12-14T06:32:32.782Z,85.90
2022-12-14T06:33:04.800Z,85.80
2022-12-14T06:33:36.587Z,85.90
2022-12-14T06:34:42.552Z,85.60
2022-12-14T06:35:14.419Z,85.80
2022-12-14T06:35:47.087Z,85.90
2022-12-14T06:36:28.111Z,85.80
2022-12-14T06:36:59.943Z,85.90
2022-12-14T06:37:32.255Z,86.00
2022-12-14T06:38:04.020Z,86.00
2022-12-14T06:38:35.770Z,86.00
2022-12-14T06:39:11.420Z,86.30
2022-12-14T06:39:43.194Z,86.30
2022-12-14T06:40:15.554Z,86.20
2022-12-14T06:40:47.623Z,86.20
2022-12-14T06:41:20.918Z,86.10
2022-12-14T06:41:52.712Z,86.40
2022-12-14T06:42:24.433Z,86.60
2022-12-14T06:42:56.152Z,86.60
2022-12-14T06:43:28.203Z,86.70
2022-12-14T06:44:08.557Z,86.80
2022-12-14T06:44:40.302Z,87.00
2022-12-14T06:45:12.112Z,86.90
2022-12-14T06:45:43.901Z,86.90
2022-12-14T06:46:18.415Z,86.90
2022-12-14T06:46:50.353Z,87.00
2022-12-14T06:47:22.237Z,87.10
2022-12-14T06:47:53.948Z,89.50
2022-12-14T06:48:25.775Z,87.00
2022-12-14T06:48:57.609Z,87.40
2022-12-14T06:50:01.599Z,87.30
2022-12-14T06:50:33.653Z,89.40
2022-12-14T06:51:06.653Z,87.30
2022-12-14T06:51:40.379Z,87.50
2022-12-14T06:52:12.144Z,87.60
2022-12-14T06:52:43.934Z,87.50
2022-12-14T06:53:15.723Z,87.30
2022-12-14T06:53:51.950Z,87.40
2022-12-14T06:54:23.717Z,87.90
2022-12-14T06:54:55.436Z,87.40
2022-12-14T06:55:28.269Z,88.20
2022-12-14T06:56:12.391Z,87.60
2022-12-14T06:56:46.744Z,88.00
2022-12-14T06:57:18.549Z,87.60
2022-12-14T06:57:51.603Z,87.80
2022-12-14T06:58:26.792Z,87.70
2022-12-14T06:59:01.377Z,87.60
2022-12-14T06:59:33.127Z,87.50
2022-12-14T07:00:05.305Z,87.50
2022-12-14T07:00:37.831Z,87.50
2022-12-14T07:01:13.427Z,87.40
2022-12-14T07:01:46.056Z,87.70
2022-12-14T07:02:22.181Z,87.80
2022-12-14T07:02:54.272Z,87.90
2022-12-14T07:03:26.635Z,88.30
2022-12-14T07:03:59.449Z,88.30
2022-12-14T07:04:31.286Z,87.90
2022-12-14T07:05:03.214Z,87.80
2022-12-14T07:05:35.028Z,88.30
2022-12-14T07:06:07.135Z,87.80
2022-12-14T07:06:40.938Z,88.40
2022-12-14T07:07:12.719Z,88.00
2022-12-14T07:07:44.548Z,88.50
2022-12-14T07:08:16.276Z,87.80
2022-12-14T07:08:48.505Z,87.90
2022-12-14T07:09:20.231Z,87.90
2022-12-14T07:09:51.955Z,87.80
2022-12-14T07:10:23.746Z,88.30
2022-12-14T07:11:02.104Z,87.80
2022-12-14T07:11:34.320Z,88.50
2022-12-14T07:12:06.284Z,88.00
2022-12-14T07:12:38.308Z,87.80
2022-12-14T07:13:10.025Z,87.90
2022-12-14T07:13:42.437Z,88.10
2022-12-14T07:14:17.765Z,88.10
2022-12-14T07:14:49.484Z,88.10
2022-12-14T07:15:21.317Z,88.00
2022-12-14T07:15:58.403Z,87.90
2022-12-14T07:16:30.528Z,88.10
2022-12-14T07:17:02.322Z,88.10
2022-12-14T07:17:37.102Z,87.70
2022-12-14T07:18:08.842Z,87.60
2022-12-14T07:19:13.027Z,87.30
2022-12-14T07:19:44.838Z,87.30
2022-12-14T07:20:20.932Z,87.30
2022-12-14T07:21:11.668Z,87.30
2022-12-14T07:21:43.417Z,87.60
2022-12-14T07:22:15.300Z,87.70
2022-12-14T07:22:49.081Z,87.60
2022-12-14T07:23:24.769Z,87.60
2022-12-14T07:24:01.177Z,87.60
2022-12-14T07:24:32.919Z,87.60
2022-12-14T07:25:05.017Z,87.70
2022-12-14T07:25:36.793Z,87.80
2022-12-14T07:26:17.947Z,87.70
2022-12-14T07:26:49.695Z,87.60
2022-12-14T07:27:21.529Z,87.40
2022-12-14T07:27:53.325Z,87.40
2022-12-14T07:28:25.085Z,87.50
2022-12-14T07:29:00.437Z,87.70
2022-12-14T07:29:34.811Z,87.70
2022-12-14T07:30:39.702Z,87.50
2022-12-14T07:31:17.904Z,87.60
2022-12-14T07:31:49.991Z,87.70
2022-12-14T07:32:22.159Z,87.70
2022-12-14T07:32:53.934Z,87.70
2022-12-14T07:34:32.179Z,87.90
2022-12-14T07:35:04.308Z,87.90
2022-12-14T07:36:16.504Z,87.90
2022-12-14T07:36:52.306Z,87.80
2022-12-14T07:37:24.145Z,88.10
2022-12-14T07:37:55.860Z,88.10
2022-12-14T07:38:27.639Z,88.10
2022-12-14T07:39:31.503Z,87.80
2022-12-14T07:40:04.420Z,87.90
2022-12-14T07:41:13.306Z,87.80
2022-12-14T07:41:48.904Z,88.10
2022-12-14T07:42:25.753Z,88.20
2022-12-14T07:42:57.435Z,88.20
2022-12-14T07:43:29.596Z,88.20
2022-12-14T07:44:01.669Z,88.20
2022-12-14T07:45:05.996Z,87.80
2022-12-14T07:45:37.753Z,87.80
2022-12-14T07:46:12.607Z,87.90
2022-12-14T07:46:45.503Z,88.00
2022-12-14T07:47:17.296Z,88.00
2022-12-14T07:47:49.058Z,88.20
2022-12-14T07:48:20.814Z,88.10
2022-12-14T07:48:55.127Z,88.20
2022-12-14T07:49:26.841Z,88.20
2022-12-14T07:49:58.644Z,88.30
2022-12-14T07:50:30.578Z,88.40
2022-12-14T07:51:10.508Z,88.30
2022-12-14T07:51:44.058Z,88.30
2022-12-14T07:52:16.722Z,88.40
2022-12-14T07:52:48.569Z,88.40
2022-12-14T07:53:20.616Z,88.20
2022-12-14T07:54:26.291Z,88.30
2022-12-14T07:54:58.024Z,88.30
2022-12-14T07:55:30.009Z,88.30
2022-12-14T07:56:04.731Z,88.20
2022-12-14T07:56:39.966Z,88.30
2022-12-14T07:57:11.843Z,88.30
2022-12-14T07:58:15.980Z,88.00
2022-12-14T07:58:48.495Z,88.10
2022-12-14T07:59:20.275Z,88.20
2022-12-14T07:59:57.220Z,88.00
2022-12-14T08:00:29.562Z,87.90
2022-12-14T08:01:18.799Z,88.10
2022-12-14T08:01:53.363Z,88.10
2022-12-14T08:02:25.333Z,88.20
2022-12-14T08:03:29.792Z,88.00
2022-12-14T08:04:07.849Z,88.10
2022-12-14T08:04:40.621Z,88.10
2022-12-14T08:05:12.985Z,88.20
2022-12-14T08:07:22.759Z,87.90
2022-12-14T08:07:54.510Z,87.90
2022-12-14T08:08:26.206Z,87.80
2022-12-14T08:08:58.517Z,87.90
2022-12-14T08:10:40.153Z,87.50
2022-12-14T08:11:45.650Z,87.30
2022-12-14T08:12:52.643Z,87.00
2022-12-14T08:56:43.919Z,85.90
2022-12-14T09:42:39.101Z,86.40
2022-12-14T09:46:19.889Z,86.50
2022-12-14T09:58:27.439Z,86.70
2022-12-14T10:01:18.380Z,87.00
2022-12-14T10:09:45.836Z,87.00
2022-12-14T10:11:11.383Z,87.00
2022-12-14T10:12:47.650Z,87.10
2022-12-14T10:14:46.780Z,87.30
2022-12-14T10:16:45.845Z,87.20
2022-12-14T10:23:58.656Z,87.40
2022-12-14T10:29:06.744Z,87.40
2022-12-14T10:32:25.807Z,87.60
2022-12-14T10:42:49.571Z,87.80
2022-12-14T10:45:43.098Z,87.70
2022-12-14T10:46:42.096Z,87.90
2022-12-14T10:59:26.416Z,88.10
2022-12-14T11:04:33.425Z,88.10
2022-12-14T11:08:48.257Z,88.10
2022-12-14T11:12:18.450Z,88.30
2022-12-14T11:13:20.992Z,88.60
2022-12-14T11:17:34.231Z,88.50
2022-12-14T11:24:53.398Z,88.50
2022-12-14T11:25:43.574Z,88.50
2022-12-14T11:28:37.775Z,88.60
2022-12-14T11:38:32.750Z,89.00
2022-12-14T11:39:13.488Z,89.10
2022-12-14T11:43:41.601Z,89.30
2022-12-14T11:44:16.253Z,89.60
2022-12-14T11:45:32.209Z,89.50
2022-12-14T11:47:00.413Z,89.60
2022-12-14T11:48:13.423Z,89.70
2022-12-14T11:57:45.887Z,90.00
2022-12-14T12:04:08.683Z,90.20
2022-12-14T12:07:54.090Z,90.40
2022-12-14T12:09:03.231Z,90.30
2022-12-14T12:09:35.242Z,90.30
2022-12-14T12:11:28.412Z,90.30
2022-12-14T12:12:33.055Z,90.30
2022-12-14T12:14:37.904Z,90.50
2022-12-14T12:15:53.388Z,90.50
2022-12-14T12:16:28.144Z,90.50
2022-12-14T12:17:42.279Z,90.40
2022-12-14T12:18:29.445Z,90.50
2022-12-14T12:19:40.227Z,90.50
2022-12-14T12:21:25.984Z,90.60
2022-12-14T12:22:02.326Z,90.70
2022-12-14T12:24:13.994Z,90.50
2022-12-14T12:26:39.110Z,90.50
2022-12-14T12:28:36.393Z,90.60
2022-12-14T12:30:36.150Z,90.70
2022-12-14T12:31:16.798Z,90.70
2022-12-14T12:32:50.266Z,90.70
2022-12-14T12:34:15.092Z,90.90
2022-12-14T12:36:32.159Z,90.70
2022-12-14T12:39:00.480Z,90.90
2022-12-14T12:41:21.111Z,90.80
2022-12-14T12:42:05.415Z,90.90
2022-12-14T12:42:50.152Z,90.90
2022-12-14T12:43:40.404Z,91.00
2022-12-14T12:44:57.361Z,91.10
2022-12-14T12:45:43.054Z,91.10
2022-12-14T12:46:20.267Z,91.20
2022-12-14T12:48:48.220Z,90.90
2022-12-14T12:49:20.018Z,91.00
2022-12-14T12:49:52.196Z,91.00
2022-12-14T12:51:55.873Z,90.80